sensor_id;sensor_type;location;lat;lon;timestamp;pressure;altitude;pressure_sealevel;temperature;humidity
35331;BME280;21441;52.190;20.910;2023-02-18T00:00:22;99096.16;;;7.43;100.00
35331;BME280;21441;52.190;20.910;2023-02-18T00:03:11;99072.47;;;7.18;100.00
35331;BME280;21441;52.190;20.910;2023-02-18T00:05:39;99074.13;;;7.19;100.00
35331;BME280;21441;52.190;20.910;2023-02-18T00:08:06;99083.03;;;7.03;100.00
35331;BME280;21441;52.190;20.910;2023-02-18T00:10:34;99092.97;;;7.01;100.00
35331;BME280;21441;52.190;20.910;2023-02-18T00:13:01;99072.13;;;6.98;100.00
35331;BME280;21441;52.190;20.910;2023-02-18T00:15:29;99078.94;;;6.93;100.00
35331;BME280;21441;52.190;20.910;2023-02-18T00:17:56;99074.19;;;6.88;100.00
35331;BME280;21441;52.190;20.910;2023-02-18T00:20:26;99082.50;;;6.85;100.00
35331;BME280;21441;52.190;20.910;2023-02-18T00:22:53;99102.19;;;6.82;100.00
35331;BME280;21441;52.190;20.910;2023-02-18T00:25:21;99078.88;;;6.78;100.00
35331;BME280;21441;52.190;20.910;2023-02-18T00:27:48;99105.72;;;6.75;100.00
35331;BME280;21441;52.190;20.910;2023-02-18T00:30:16;99096.47;;;6.71;100.00
35331;BME280;21441;52.190;20.910;2023-02-18T00:32:43;99094.84;;;6.70;100.00
35331;BME280;21441;52.190;20.910;2023-02-18T00:35:11;99098.28;;;6.78;100.00
35331;BME280;21441;52.190;20.910;2023-02-18T00:37:39;99097.25;;;6.79;100.00
35331;BME280;21441;52.190;20.910;2023-02-18T00:40:09;99103.75;;;6.77;100.00
35331;BME280;21441;52.190;20.910;2023-02-18T00:42:37;99141.97;;;6.82;100.00
35331;BME280;21441;52.190;20.910;2023-02-18T00:45:05;99120.81;;;6.74;100.00
35331;BME280;21441;52.190;20.910;2023-02-18T00:47:32;99124.63;;;6.72;100.00
35331;BME280;21441;52.190;20.910;2023-02-18T00:50:00;99108.25;;;6.68;100.00
35331;BME280;21441;52.190;20.910;2023-02-18T00:52:27;99121.38;;;6.61;100.00
35331;BME280;21441;52.190;20.910;2023-02-18T00:54:56;99129.31;;;6.61;100.00
35331;BME280;21441;52.190;20.910;2023-02-18T00:57:23;99126.16;;;6.66;100.00
35331;BME280;21441;52.190;20.910;2023-02-18T00:59:51;99115.38;;;6.68;100.00
35331;BME280;21441;52.190;20.910;2023-02-18T01:02:18;99140.06;;;6.68;100.00
35331;BME280;21441;52.190;20.910;2023-02-18T01:04:45;99105.16;;;6.56;100.00
35331;BME280;21441;52.190;20.910;2023-02-18T01:07:13;99122.22;;;6.54;100.00
35331;BME280;21441;52.190;20.910;2023-02-18T01:09:40;99132.16;;;6.52;100.00
35331;BME280;21441;52.190;20.910;2023-02-18T01:12:09;99126.03;;;6.51;100.00
35331;BME280;21441;52.190;20.910;2023-02-18T01:14:36;99124.22;;;6.52;100.00
35331;BME280;21441;52.190;20.910;2023-02-18T01:17:04;99126.03;;;6.59;100.00
35331;BME280;21441;52.190;20.910;2023-02-18T01:19:31;99125.84;;;6.61;100.00
35331;BME280;21441;52.190;20.910;2023-02-18T01:21:58;99117.72;;;6.63;100.00
35331;BME280;21441;52.190;20.910;2023-02-18T01:24:26;99117.91;;;6.61;99.98
35331;BME280;21441;52.190;20.910;2023-02-18T01:26:53;99121.69;;;6.58;100.00
35331;BME280;21441;52.190;20.910;2023-02-18T01:29:22;99129.84;;;6.57;100.00
35331;BME280;21441;52.190;20.910;2023-02-18T01:31:50;99131.84;;;6.55;100.00
35331;BME280;21441;52.190;20.910;2023-02-18T01:34:17;99112.13;;;6.57;100.00
35331;BME280;21441;52.190;20.910;2023-02-18T01:36:45;99123.41;;;6.51;100.00
35331;BME280;21441;52.190;20.910;2023-02-18T01:39:12;99128.38;;;6.54;100.00
35331;BME280;21441;52.190;20.910;2023-02-18T01:41:39;99104.03;;;6.51;100.00
35331;BME280;21441;52.190;20.910;2023-02-18T01:44:15;99107.50;;;6.51;100.00
35331;BME280;21441;52.190;20.910;2023-02-18T01:46:44;99108.38;;;6.44;100.00
35331;BME280;21441;52.190;20.910;2023-02-18T01:49:13;99109.72;;;6.39;100.00
35331;BME280;21441;52.190;20.910;2023-02-18T01:51:45;99103.91;;;6.36;100.00
35331;BME280;21441;52.190;20.910;2023-02-18T01:54:18;99117.69;;;6.31;100.00
35331;BME280;21441;52.190;20.910;2023-02-18T01:56:50;99119.97;;;6.34;100.00
35331;BME280;21441;52.190;20.910;2023-02-18T01:59:19;99117.16;;;6.36;100.00
35331;BME280;21441;52.190;20.910;2023-02-18T02:01:48;99117.31;;;6.34;100.00
35331;BME280;21441;52.190;20.910;2023-02-18T02:04:16;99108.91;;;6.31;100.00
35331;BME280;21441;52.190;20.910;2023-02-18T02:06:44;99116.03;;;6.30;100.00
35331;BME280;21441;52.190;20.910;2023-02-18T02:09:15;99120.97;;;6.33;100.00
35331;BME280;21441;52.190;20.910;2023-02-18T02:12:03;99116.50;;;6.34;100.00
35331;BME280;21441;52.190;20.910;2023-02-18T02:14:46;99117.69;;;6.31;100.00
35331;BME280;21441;52.190;20.910;2023-02-18T02:17:25;99111.75;;;6.21;100.00
35331;BME280;21441;52.190;20.910;2023-02-18T02:20:21;99097.81;;;6.27;100.00
35331;BME280;21441;52.190;20.910;2023-02-18T02:29:22;99113.94;;;6.09;100.00
35331;BME280;21441;52.190;20.910;2023-02-18T02:32:06;99092.09;;;6.07;100.00
35331;BME280;21441;52.190;20.910;2023-02-18T02:34:46;99088.94;;;6.12;100.00
35331;BME280;21441;52.190;20.910;2023-02-18T02:37:17;99106.66;;;6.03;100.00
35331;BME280;21441;52.190;20.910;2023-02-18T02:39:56;99098.06;;;6.01;100.00
35331;BME280;21441;52.190;20.910;2023-02-18T02:42:37;99112.94;;;5.94;100.00
35331;BME280;21441;52.190;20.910;2023-02-18T02:45:12;99103.69;;;5.90;100.00
35331;BME280;21441;52.190;20.910;2023-02-18T02:47:47;99121.06;;;5.92;100.00
35331;BME280;21441;52.190;20.910;2023-02-18T02:50:19;99101.72;;;5.84;100.00
35331;BME280;21441;52.190;20.910;2023-02-18T02:52:54;99113.81;;;5.78;100.00
35331;BME280;21441;52.190;20.910;2023-02-18T02:55:23;99121.91;;;5.76;100.00
35331;BME280;21441;52.190;20.910;2023-02-18T02:57:52;99123.75;;;5.76;100.00
35331;BME280;21441;52.190;20.910;2023-02-18T03:00:22;99104.22;;;5.77;100.00
35331;BME280;21441;52.190;20.910;2023-02-18T03:06:21;99117.63;;;5.67;100.00
35331;BME280;21441;52.190;20.910;2023-02-18T03:09:00;99121.75;;;5.62;100.00
35331;BME280;21441;52.190;20.910;2023-02-18T03:11:31;99145.56;;;5.62;100.00
35331;BME280;21441;52.190;20.910;2023-02-18T03:14:05;99136.00;;;5.61;100.00
35331;BME280;21441;52.190;20.910;2023-02-18T03:16:41;99143.94;;;5.61;100.00
35331;BME280;21441;52.190;20.910;2023-02-18T03:19:17;99132.66;;;5.50;100.00
35331;BME280;21441;52.190;20.910;2023-02-18T03:21:52;99141.28;;;5.52;100.00
35331;BME280;21441;52.190;20.910;2023-02-18T03:24:24;99135.47;;;5.49;100.00
35331;BME280;21441;52.190;20.910;2023-02-18T03:26:56;99138.78;;;5.51;100.00
35331;BME280;21441;52.190;20.910;2023-02-18T03:29:26;99134.19;;;5.45;100.00
35331;BME280;21441;52.190;20.910;2023-02-18T03:32:00;99113.50;;;5.40;100.00
35331;BME280;21441;52.190;20.910;2023-02-18T03:34:31;99153.50;;;5.37;100.00
35331;BME280;21441;52.190;20.910;2023-02-18T03:37:01;99127.88;;;5.37;100.00
35331;BME280;21441;52.190;20.910;2023-02-18T03:39:31;99163.25;;;5.36;100.00
35331;BME280;21441;52.190;20.910;2023-02-18T03:42:00;99161.94;;;5.32;100.00
35331;BME280;21441;52.190;20.910;2023-02-18T03:45:10;99144.25;;;5.25;100.00
35331;BME280;21441;52.190;20.910;2023-02-18T03:47:38;99155.31;;;5.28;100.00
35331;BME280;21441;52.190;20.910;2023-02-18T03:50:07;99155.78;;;5.24;100.00
35331;BME280;21441;52.190;20.910;2023-02-18T03:52:34;99169.03;;;5.24;100.00
35331;BME280;21441;52.190;20.910;2023-02-18T03:55:02;99163.88;;;5.22;100.00
35331;BME280;21441;52.190;20.910;2023-02-18T03:57:30;99188.88;;;5.28;100.00
35331;BME280;21441;52.190;20.910;2023-02-18T03:59:57;99181.41;;;5.23;100.00
35331;BME280;21441;52.190;20.910;2023-02-18T04:02:26;99179.94;;;5.21;100.00
35331;BME280;21441;52.190;20.910;2023-02-18T04:04:54;99196.63;;;5.21;100.00
35331;BME280;21441;52.190;20.910;2023-02-18T04:07:21;99173.47;;;5.15;100.00
35331;BME280;21441;52.190;20.910;2023-02-18T04:09:49;99137.63;;;5.21;100.00
35331;BME280;21441;52.190;20.910;2023-02-18T04:12:16;99179.41;;;5.17;100.00
35331;BME280;21441;52.190;20.910;2023-02-18T04:14:44;99184.19;;;5.13;100.00
35331;BME280;21441;52.190;20.910;2023-02-18T04:17:11;99180.75;;;5.21;100.00
35331;BME280;21441;52.190;20.910;2023-02-18T04:19:40;99180.44;;;5.16;100.00
35331;BME280;21441;52.190;20.910;2023-02-18T04:22:08;99181.56;;;5.13;100.00
35331;BME280;21441;52.190;20.910;2023-02-18T04:24:35;99199.25;;;5.13;100.00
35331;BME280;21441;52.190;20.910;2023-02-18T04:27:03;99212.78;;;5.10;100.00
35331;BME280;21441;52.190;20.910;2023-02-18T04:29:30;99168.34;;;5.05;100.00
35331;BME280;21441;52.190;20.910;2023-02-18T04:31:57;99201.41;;;5.17;100.00
35331;BME280;21441;52.190;20.910;2023-02-18T04:34:25;99203.66;;;5.04;100.00
35331;BME280;21441;52.190;20.910;2023-02-18T04:36:54;99182.19;;;4.99;100.00
35331;BME280;21441;52.190;20.910;2023-02-18T04:39:22;99186.00;;;5.05;100.00
35331;BME280;21441;52.190;20.910;2023-02-18T04:41:49;99185.69;;;5.08;100.00
35331;BME280;21441;52.190;20.910;2023-02-18T04:44:17;99194.09;;;5.03;100.00
35331;BME280;21441;52.190;20.910;2023-02-18T04:46:44;99166.00;;;5.02;100.00
35331;BME280;21441;52.190;20.910;2023-02-18T04:49:11;99199.69;;;5.00;100.00
35331;BME280;21441;52.190;20.910;2023-02-18T04:52:29;99194.41;;;5.00;100.00
35331;BME280;21441;52.190;20.910;2023-02-18T04:54:56;99201.47;;;4.91;100.00
35331;BME280;21441;52.190;20.910;2023-02-18T04:57:24;99196.00;;;4.85;100.00
35331;BME280;21441;52.190;20.910;2023-02-18T04:59:51;99170.09;;;4.88;100.00
35331;BME280;21441;52.190;20.910;2023-02-18T05:02:18;99194.22;;;4.85;100.00
35331;BME280;21441;52.190;20.910;2023-02-18T05:04:46;99198.66;;;4.85;100.00
35331;BME280;21441;52.190;20.910;2023-02-18T05:07:13;99186.91;;;4.79;100.00
35331;BME280;21441;52.190;20.910;2023-02-18T05:09:42;99183.13;;;4.82;100.00
35331;BME280;21441;52.190;20.910;2023-02-18T05:12:09;99188.06;;;4.85;100.00
35331;BME280;21441;52.190;20.910;2023-02-18T05:14:37;99174.38;;;4.81;100.00
35331;BME280;21441;52.190;20.910;2023-02-18T05:17:04;99194.66;;;4.81;100.00
35331;BME280;21441;52.190;20.910;2023-02-18T05:19:32;99206.75;;;4.83;100.00
35331;BME280;21441;52.190;20.910;2023-02-18T05:21:59;99195.03;;;4.86;100.00
35331;BME280;21441;52.190;20.910;2023-02-18T05:24:27;99199.81;;;4.82;100.00
35331;BME280;21441;52.190;20.910;2023-02-18T05:26:55;99233.00;;;4.85;100.00
35331;BME280;21441;52.190;20.910;2023-02-18T05:29:23;99210.06;;;4.85;100.00
35331;BME280;21441;52.190;20.910;2023-02-18T05:31:50;99202.28;;;4.84;100.00
35331;BME280;21441;52.190;20.910;2023-02-18T05:34:18;99210.56;;;4.89;100.00
35331;BME280;21441;52.190;20.910;2023-02-18T05:36:45;99240.44;;;4.81;100.00
35331;BME280;21441;52.190;20.910;2023-02-18T05:39:12;99220.94;;;4.82;100.00
35331;BME280;21441;52.190;20.910;2023-02-18T05:41:40;99214.50;;;4.85;100.00
35331;BME280;21441;52.190;20.910;2023-02-18T05:44:09;99233.69;;;4.87;100.00
35331;BME280;21441;52.190;20.910;2023-02-18T05:46:53;99242.09;;;4.82;100.00
35331;BME280;21441;52.190;20.910;2023-02-18T05:49:21;99230.22;;;4.86;100.00
35331;BME280;21441;52.190;20.910;2023-02-18T05:51:48;99200.44;;;4.76;100.00
35331;BME280;21441;52.190;20.910;2023-02-18T05:54:16;99228.34;;;4.79;100.00
35331;BME280;21441;52.190;20.910;2023-02-18T05:56:43;99238.47;;;4.83;100.00
35331;BME280;21441;52.190;20.910;2023-02-18T05:59:12;99223.59;;;4.82;100.00
35331;BME280;21441;52.190;20.910;2023-02-18T06:01:40;99242.91;;;4.83;100.00
35331;BME280;21441;52.190;20.910;2023-02-18T06:04:07;99225.44;;;4.90;100.00
35331;BME280;21441;52.190;20.910;2023-02-18T06:06:35;99253.84;;;4.88;100.00
35331;BME280;21441;52.190;20.910;2023-02-18T06:09:03;99210.88;;;4.86;100.00
35331;BME280;21441;52.190;20.910;2023-02-18T06:11:31;99244.56;;;4.84;100.00
35331;BME280;21441;52.190;20.910;2023-02-18T06:13:58;99262.44;;;4.90;100.00
35331;BME280;21441;52.190;20.910;2023-02-18T06:16:27;99259.63;;;4.91;100.00
35331;BME280;21441;52.190;20.910;2023-02-18T06:18:55;99258.28;;;4.87;100.00
35331;BME280;21441;52.190;20.910;2023-02-18T06:21:23;99256.13;;;4.83;100.00
35331;BME280;21441;52.190;20.910;2023-02-18T06:23:51;99264.91;;;4.83;100.00
35331;BME280;21441;52.190;20.910;2023-02-18T06:26:18;99295.47;;;4.86;100.00
35331;BME280;21441;52.190;20.910;2023-02-18T06:28:46;99292.63;;;4.87;100.00
35331;BME280;21441;52.190;20.910;2023-02-18T06:31:13;99289.56;;;4.92;100.00
35331;BME280;21441;52.190;20.910;2023-02-18T06:33:43;99282.44;;;4.92;100.00
35331;BME280;21441;52.190;20.910;2023-02-18T06:36:11;99291.88;;;4.95;100.00
35331;BME280;21441;52.190;20.910;2023-02-18T06:38:40;99275.34;;;4.93;100.00
35331;BME280;21441;52.190;20.910;2023-02-18T06:41:09;99299.78;;;4.95;100.00
35331;BME280;21441;52.190;20.910;2023-02-18T06:43:37;99265.75;;;4.92;100.00
35331;BME280;21441;52.190;20.910;2023-02-18T06:46:05;99255.63;;;4.87;100.00
35331;BME280;21441;52.190;20.910;2023-02-18T06:48:32;99270.00;;;4.85;100.00
35331;BME280;21441;52.190;20.910;2023-02-18T06:51:01;99272.81;;;4.83;100.00
35331;BME280;21441;52.190;20.910;2023-02-18T06:53:29;99293.50;;;4.88;100.00
35331;BME280;21441;52.190;20.910;2023-02-18T06:55:57;99283.41;;;4.91;100.00
35331;BME280;21441;52.190;20.910;2023-02-18T06:58:24;99289.91;;;4.97;100.00
35331;BME280;21441;52.190;20.910;2023-02-18T07:00:51;99285.22;;;4.91;100.00
35331;BME280;21441;52.190;20.910;2023-02-18T07:03:19;99317.81;;;5.00;100.00
35331;BME280;21441;52.190;20.910;2023-02-18T07:05:46;99313.41;;;5.08;100.00
35331;BME280;21441;52.190;20.910;2023-02-18T07:08:17;99324.31;;;5.05;100.00
35331;BME280;21441;52.190;20.910;2023-02-18T07:10:44;99321.66;;;5.05;100.00
35331;BME280;21441;52.190;20.910;2023-02-18T07:13:11;99319.66;;;4.99;100.00
35331;BME280;21441;52.190;20.910;2023-02-18T07:15:39;99324.78;;;5.09;100.00
35331;BME280;21441;52.190;20.910;2023-02-18T07:18:06;99344.09;;;5.01;100.00
35331;BME280;21441;52.190;20.910;2023-02-18T07:20:34;99276.06;;;5.03;100.00
35331;BME280;21441;52.190;20.910;2023-02-18T07:23:02;99289.06;;;4.96;100.00
35331;BME280;21441;52.190;20.910;2023-02-18T07:25:30;99292.69;;;4.95;100.00
35331;BME280;21441;52.190;20.910;2023-02-18T07:27:58;99303.44;;;5.02;100.00
35331;BME280;21441;52.190;20.910;2023-02-18T07:30:25;99314.41;;;5.07;100.00
35331;BME280;21441;52.190;20.910;2023-02-18T07:32:53;99297.00;;;5.05;100.00
35331;BME280;21441;52.190;20.910;2023-02-18T07:35:20;99299.13;;;5.27;100.00
35331;BME280;21441;52.190;20.910;2023-02-18T07:37:49;99307.34;;;5.24;98.87
35331;BME280;21441;52.190;20.910;2023-02-18T07:40:20;99313.72;;;5.48;97.90
35331;BME280;21441;52.190;20.910;2023-02-18T07:42:49;99288.94;;;5.57;95.57
35331;BME280;21441;52.190;20.910;2023-02-18T07:45:17;99313.25;;;5.61;95.16
35331;BME280;21441;52.190;20.910;2023-02-18T07:47:44;99311.28;;;5.63;94.99
35331;BME280;21441;52.190;20.910;2023-02-18T07:50:12;99261.50;;;5.58;93.28
35331;BME280;21441;52.190;20.910;2023-02-18T07:52:39;99303.81;;;5.66;92.52
35331;BME280;21441;52.190;20.910;2023-02-18T07:55:07;99301.72;;;5.78;91.47
35331;BME280;21441;52.190;20.910;2023-02-18T07:57:35;99326.03;;;5.73;92.01
35331;BME280;21441;52.190;20.910;2023-02-18T08:00:24;99321.38;;;5.67;92.59
35331;BME280;21441;52.190;20.910;2023-02-18T08:02:51;99309.16;;;5.83;91.43
35331;BME280;21441;52.190;20.910;2023-02-18T08:05:19;99307.31;;;5.67;92.85
35331;BME280;21441;52.190;20.910;2023-02-18T08:07:46;99319.59;;;5.92;91.90
35331;BME280;21441;52.190;20.910;2023-02-18T08:10:14;99319.16;;;6.05;90.96
35331;BME280;21441;52.190;20.910;2023-02-18T08:12:41;99329.59;;;6.07;88.67
35331;BME280;21441;52.190;20.910;2023-02-18T08:15:08;99298.28;;;6.18;88.43
35331;BME280;21441;52.190;20.910;2023-02-18T08:17:38;99282.06;;;6.05;89.52
35331;BME280;21441;52.190;20.910;2023-02-18T08:20:06;99310.38;;;6.37;88.39
35331;BME280;21441;52.190;20.910;2023-02-18T08:22:34;99325.44;;;6.12;87.76
35331;BME280;21441;52.190;20.910;2023-02-18T08:25:01;99317.50;;;6.04;86.27
35331;BME280;21441;52.190;20.910;2023-02-18T08:27:29;99308.72;;;5.95;87.61
35331;BME280;21441;52.190;20.910;2023-02-18T08:29:56;99338.38;;;6.24;87.78
35331;BME280;21441;52.190;20.910;2023-02-18T08:32:26;99312.69;;;6.16;86.10
35331;BME280;21441;52.190;20.910;2023-02-18T08:34:55;99325.28;;;6.14;85.61
35331;BME280;21441;52.190;20.910;2023-02-18T08:37:22;99313.34;;;6.10;86.04
35331;BME280;21441;52.190;20.910;2023-02-18T08:39:50;99321.00;;;6.13;87.02
35331;BME280;21441;52.190;20.910;2023-02-18T08:42:18;99333.38;;;6.20;85.66
35331;BME280;21441;52.190;20.910;2023-02-18T08:44:45;99327.09;;;6.30;85.35
35331;BME280;21441;52.190;20.910;2023-02-18T08:47:13;99344.97;;;6.28;84.72
35331;BME280;21441;52.190;20.910;2023-02-18T08:49:40;99345.66;;;6.22;84.90
35331;BME280;21441;52.190;20.910;2023-02-18T08:52:10;99336.53;;;6.08;85.58
35331;BME280;21441;52.190;20.910;2023-02-18T08:54:37;99336.31;;;5.85;87.01
35331;BME280;21441;52.190;20.910;2023-02-18T08:57:04;99352.34;;;5.83;88.10
35331;BME280;21441;52.190;20.910;2023-02-18T08:59:32;99359.13;;;5.86;88.91
35331;BME280;21441;52.190;20.910;2023-02-18T09:01:59;99355.06;;;6.16;87.00
35331;BME280;21441;52.190;20.910;2023-02-18T09:04:26;99358.69;;;5.98;87.32
35331;BME280;21441;52.190;20.910;2023-02-18T09:06:54;99348.25;;;5.97;87.80
35331;BME280;21441;52.190;20.910;2023-02-18T09:09:23;99356.63;;;5.76;86.97
35331;BME280;21441;52.190;20.910;2023-02-18T09:11:50;99362.16;;;5.99;87.54
35331;BME280;21441;52.190;20.910;2023-02-18T09:14:17;99354.56;;;6.04;87.96
35331;BME280;21441;52.190;20.910;2023-02-18T09:16:45;99364.66;;;6.09;86.19
35331;BME280;21441;52.190;20.910;2023-02-18T09:19:12;99372.38;;;5.94;86.31
35331;BME280;21441;52.190;20.910;2023-02-18T09:21:40;99388.16;;;6.12;85.08
35331;BME280;21441;52.190;20.910;2023-02-18T09:24:07;99368.13;;;6.01;84.78
35331;BME280;21441;52.190;20.910;2023-02-18T09:26:37;99361.03;;;6.18;81.62
35331;BME280;21441;52.190;20.910;2023-02-18T09:29:04;99371.13;;;6.06;83.13
35331;BME280;21441;52.190;20.910;2023-02-18T09:31:32;99370.78;;;6.26;80.05
35331;BME280;21441;52.190;20.910;2023-02-18T09:34:02;99375.59;;;6.38;76.55
35331;BME280;21441;52.190;20.910;2023-02-18T09:36:30;99384.72;;;6.19;76.98
35331;BME280;21441;52.190;20.910;2023-02-18T09:38:58;99359.34;;;6.01;78.81
35331;BME280;21441;52.190;20.910;2023-02-18T09:41:31;99378.03;;;5.99;80.29
35331;BME280;21441;52.190;20.910;2023-02-18T09:44:04;99376.91;;;6.10;80.79
35331;BME280;21441;52.190;20.910;2023-02-18T09:46:36;99391.63;;;5.96;79.78
35331;BME280;21441;52.190;20.910;2023-02-18T09:49:11;99407.38;;;6.14;80.00
35331;BME280;21441;52.190;20.910;2023-02-18T09:51:40;99383.81;;;5.86;82.27
35331;BME280;21441;52.190;20.910;2023-02-18T09:54:09;99400.06;;;6.08;82.85
35331;BME280;21441;52.190;20.910;2023-02-18T09:56:37;99389.16;;;6.03;80.72
35331;BME280;21441;52.190;20.910;2023-02-18T09:59:12;99403.03;;;5.96;81.06
35331;BME280;21441;52.190;20.910;2023-02-18T10:01:42;99412.00;;;6.12;81.37
35331;BME280;21441;52.190;20.910;2023-02-18T10:04:14;99415.13;;;6.07;81.24
35331;BME280;21441;52.190;20.910;2023-02-18T10:06:44;99416.50;;;6.28;80.69
35331;BME280;21441;52.190;20.910;2023-02-18T10:09:17;99421.63;;;6.29;75.69
35331;BME280;21441;52.190;20.910;2023-02-18T10:11:50;99418.78;;;6.14;76.65
35331;BME280;21441;52.190;20.910;2023-02-18T10:14:19;99412.38;;;6.17;76.92
35331;BME280;21441;52.190;20.910;2023-02-18T10:16:48;99424.09;;;6.14;76.28
35331;BME280;21441;52.190;20.910;2023-02-18T10:19:23;99403.84;;;5.97;75.93
35331;BME280;21441;52.190;20.910;2023-02-18T10:21:52;99414.38;;;6.48;73.72
35331;BME280;21441;52.190;20.910;2023-02-18T10:24:27;99421.00;;;6.35;73.57
35331;BME280;21441;52.190;20.910;2023-02-18T10:26:56;99416.50;;;6.36;73.78
35331;BME280;21441;52.190;20.910;2023-02-18T10:29:26;99398.13;;;6.26;74.61
35331;BME280;21441;52.190;20.910;2023-02-18T10:32:03;99422.13;;;6.25;74.50
35331;BME280;21441;52.190;20.910;2023-02-18T10:34:39;99420.00;;;6.53;72.84
35331;BME280;21441;52.190;20.910;2023-02-18T10:37:27;99388.50;;;6.25;73.30
35331;BME280;21441;52.190;20.910;2023-02-18T10:40:02;99410.72;;;6.65;72.95
35331;BME280;21441;52.190;20.910;2023-02-18T10:42:42;99388.03;;;6.71;73.69
35331;BME280;21441;52.190;20.910;2023-02-18T10:45:22;99388.38;;;6.35;75.57
35331;BME280;21441;52.190;20.910;2023-02-18T10:48:05;99402.09;;;6.38;76.56
35331;BME280;21441;52.190;20.910;2023-02-18T10:50:38;99394.19;;;6.63;76.37
35331;BME280;21441;52.190;20.910;2023-02-18T10:53:11;99391.03;;;6.35;78.15
35331;BME280;21441;52.190;20.910;2023-02-18T10:55:41;99386.53;;;6.35;77.24
35331;BME280;21441;52.190;20.910;2023-02-18T10:58:41;99402.59;;;6.34;79.30
35331;BME280;21441;52.190;20.910;2023-02-18T11:01:15;99390.16;;;6.34;80.23
35331;BME280;21441;52.190;20.910;2023-02-18T11:03:46;99372.44;;;6.18;79.93
35331;BME280;21441;52.190;20.910;2023-02-18T11:06:21;99399.78;;;6.27;80.36
35331;BME280;21441;52.190;20.910;2023-02-18T11:08:52;99377.25;;;6.23;79.52
35331;BME280;21441;52.190;20.910;2023-02-18T11:11:23;99388.50;;;6.25;80.70
35331;BME280;21441;52.190;20.910;2023-02-18T11:13:52;99386.22;;;6.30;81.26
35331;BME280;21441;52.190;20.910;2023-02-18T11:16:22;99372.13;;;6.30;79.98
35331;BME280;21441;52.190;20.910;2023-02-18T11:18:50;99406.38;;;6.23;81.63
35331;BME280;21441;52.190;20.910;2023-02-18T11:21:28;99320.97;;;6.21;81.19
35331;BME280;21441;52.190;20.910;2023-02-18T11:23:56;99398.47;;;6.31;80.19
35331;BME280;21441;52.190;20.910;2023-02-18T11:26:27;99374.25;;;6.10;81.81
35331;BME280;21441;52.190;20.910;2023-02-18T11:28:59;99367.13;;;6.10;82.16
35331;BME280;21441;52.190;20.910;2023-02-18T11:31:38;99341.03;;;6.24;81.70
35331;BME280;21441;52.190;20.910;2023-02-18T11:34:14;99347.81;;;6.51;80.63
35331;BME280;21441;52.190;20.910;2023-02-18T11:36:42;99377.25;;;6.80;79.80
35331;BME280;21441;52.190;20.910;2023-02-18T11:39:17;99352.72;;;6.95;77.50
35331;BME280;21441;52.190;20.910;2023-02-18T11:41:47;99367.78;;;6.94;75.65
35331;BME280;21441;52.190;20.910;2023-02-18T11:44:18;99351.28;;;6.59;76.01
35331;BME280;21441;52.190;20.910;2023-02-18T11:46:58;99342.16;;;6.62;75.57
35331;BME280;21441;52.190;20.910;2023-02-18T11:49:27;99360.88;;;6.60;74.88
35331;BME280;21441;52.190;20.910;2023-02-18T11:52:03;99358.91;;;7.27;73.18
35331;BME280;21441;52.190;20.910;2023-02-18T11:54:31;99353.13;;;7.94;71.26
35331;BME280;21441;52.190;20.910;2023-02-18T11:57:02;99358.13;;;8.81;61.35
35331;BME280;21441;52.190;20.910;2023-02-18T11:59:32;99357.44;;;7.63;66.73
35331;BME280;21441;52.190;20.910;2023-02-18T12:02:21;99346.38;;;7.04;69.72
35331;BME280;21441;52.190;20.910;2023-02-18T12:04:57;99363.81;;;6.98;71.55
35331;BME280;21441;52.190;20.910;2023-02-18T12:07:30;99351.38;;;6.91;73.73
35331;BME280;21441;52.190;20.910;2023-02-18T12:10:03;99352.56;;;6.72;74.69
35331;BME280;21441;52.190;20.910;2023-02-18T12:12:43;99312.72;;;7.05;71.51
35331;BME280;21441;52.190;20.910;2023-02-18T12:15:17;99357.06;;;6.63;74.35
35331;BME280;21441;52.190;20.910;2023-02-18T12:17:57;99323.78;;;6.36;74.84
35331;BME280;21441;52.190;20.910;2023-02-18T12:20:42;99352.41;;;6.90;73.29
35331;BME280;21441;52.190;20.910;2023-02-18T12:23:21;99329.88;;;6.86;72.07
35331;BME280;21441;52.190;20.910;2023-02-18T12:25:56;99319.69;;;7.14;70.50
35331;BME280;21441;52.190;20.910;2023-02-18T12:28:33;99328.84;;;6.87;71.35
35331;BME280;21441;52.190;20.910;2023-02-18T12:34:11;99312.34;;;6.52;74.53
35331;BME280;21441;52.190;20.910;2023-02-18T12:36:48;99309.06;;;6.33;74.85
35331;BME280;21441;52.190;20.910;2023-02-18T12:39:28;99301.13;;;6.33;76.37
35331;BME280;21441;52.190;20.910;2023-02-18T12:42:20;99299.59;;;6.47;75.82
35331;BME280;21441;52.190;20.910;2023-02-18T12:45:02;99302.09;;;6.49;75.57
35331;BME280;21441;52.190;20.910;2023-02-18T12:47:46;99299.59;;;6.47;76.00
35331;BME280;21441;52.190;20.910;2023-02-18T12:50:33;99305.88;;;6.71;75.13
35331;BME280;21441;52.190;20.910;2023-02-18T12:53:17;99300.22;;;6.74;74.22
35331;BME280;21441;52.190;20.910;2023-02-18T12:56:06;99288.63;;;6.83;73.15
35331;BME280;21441;52.190;20.910;2023-02-18T12:58:45;99287.88;;;7.06;72.22
35331;BME280;21441;52.190;20.910;2023-02-18T13:01:28;99268.41;;;6.74;74.36
35331;BME280;21441;52.190;20.910;2023-02-18T13:04:14;99279.50;;;6.86;75.15
35331;BME280;21441;52.190;20.910;2023-02-18T13:07:11;99286.84;;;6.51;76.18
35331;BME280;21441;52.190;20.910;2023-02-18T13:09:57;99270.16;;;6.26;78.72
35331;BME280;21441;52.190;20.910;2023-02-18T13:12:33;99265.53;;;6.19;80.37
35331;BME280;21441;52.190;20.910;2023-02-18T13:15:10;99273.97;;;6.07;81.47
35331;BME280;21441;52.190;20.910;2023-02-18T13:17:41;99273.47;;;6.03;82.22
35331;BME280;21441;52.190;20.910;2023-02-18T13:20:18;99270.16;;;6.01;83.62
35331;BME280;21441;52.190;20.910;2023-02-18T13:22:49;99272.66;;;6.03;83.43
35331;BME280;21441;52.190;20.910;2023-02-18T13:25:18;99271.78;;;5.94;83.95
35331;BME280;21441;52.190;20.910;2023-02-18T13:27:52;99246.81;;;5.80;83.91